Time;durP1;ratioP1;P1;durP2;ratioP2;P2;SDS_P1;SDS_P2;PMS_P1;PMS_P2;Temp;Humidity;BMP_temperature;BMP_pressure;BME280_temperature;BME280_humidity;BME280_pressure;Samples;Min_cycle;Max_cycle;Signal;HPM_P1;HPM_P2
2021/01/13 00:01:29;;;;;;;23.17;11.15;;;2.70;56.20;;;;;;5115327;28;20440;-72
2021/01/13 00:03:55;;;;;;;18.60;10.50;;;2.70;56.20;;;;;;5115227;28;20039;-71
2021/01/13 00:06:21;;;;;;;22.33;12.27;;;2.70;56.20;;;;;;5115201;28;20028;-71
2021/01/13 00:08:47;;;;;;;19.65;10.90;;;2.80;56.10;;;;;;5114666;28;20429;-71
2021/01/13 00:11:15;;;;;;;17.00;9.57;;;2.70;56.10;;;;;;5114958;28;20031;-72
2021/01/13 00:13:41;;;;;;;20.63;10.88;;;2.70;56.20;;;;;;5114857;28;20065;-72
2021/01/13 00:16:07;;;;;;;19.92;10.77;;;2.70;56.20;;;;;;5115074;28;20364;-70
2021/01/13 00:18:33;;;;;;;21.88;10.77;;;2.70;56.10;;;;;;5114784;28;20026;-70
2021/01/13 00:20:59;;;;;;;20.13;9.75;;;2.80;56.10;;;;;;5114420;28;20100;-71
2021/01/13 00:23:24;;;;;;;18.90;10.68;;;2.70;56.00;;;;;;5115139;28;20540;-72
2021/01/13 00:25:50;;;;;;;20.40;10.50;;;2.70;56.10;;;;;;5114985;28;20022;-71
2021/01/13 00:28:16;;;;;;;20.25;11.48;;;2.70;56.20;;;;;;5114306;28;20055;-71
2021/01/13 00:30:41;;;;;;;23.27;11.48;;;2.70;56.30;;;;;;5114567;28;20032;-72
2021/01/13 00:33:07;;;;;;;24.13;13.02;;;2.70;56.20;;;;;;5114833;28;20039;-72
2021/01/13 00:35:33;;;;;;;24.83;11.63;;;2.70;56.30;;;;;;5114772;28;20027;-71
2021/01/13 00:37:58;;;;;;;20.15;10.93;;;2.70;56.40;;;;;;5114430;28;20125;-72
2021/01/13 00:40:24;;;;;;;25.23;12.50;;;2.70;56.50;;;;;;5113012;28;20048;-71
2021/01/13 00:42:50;;;;;;;25.05;12.50;;;2.70;56.50;;;;;;5112831;28;20501;-71
2021/01/13 00:45:17;;;;;;;24.05;12.18;;;2.70;56.50;;;;;;5114595;28;20358;-70
2021/01/13 00:47:43;;;;;;;27.02;12.38;;;2.60;56.50;;;;;;5113077;28;20386;-71
2021/01/13 00:50:12;;;;;;;31.77;13.15;;;2.60;56.60;;;;;;5114284;28;20098;-71
2021/01/13 00:52:44;;;;;;;22.67;11.70;;;2.60;56.60;;;;;;5114195;28;20044;-71
2021/01/13 00:55:10;;;;;;;22.05;12.00;;;2.60;56.70;;;;;;5113165;28;20219;-72
2021/01/13 00:57:35;;;;;;;25.17;13.02;;;2.50;56.80;;;;;;5113135;28;20224;-71
2021/01/13 01:00:01;;;;;;;24.33;12.57;;;2.60;57.00;;;;;;5113860;28;20035;-71
2021/01/13 01:02:27;;;;;;;28.13;12.70;;;2.50;57.00;;;;;;5113986;28;20051;-71
2021/01/13 01:04:52;;;;;;;34.03;13.93;;;2.60;57.20;;;;;;5112823;28;20019;-71
2021/01/13 01:07:18;;;;;;;24.38;12.32;;;2.60;57.20;;;;;;5114017;28;20024;-72
2021/01/13 01:09:44;;;;;;;27.80;13.65;;;2.60;57.20;;;;;;5113678;28;20066;-72
2021/01/13 01:12:09;;;;;;;26.45;12.35;;;2.60;57.20;;;;;;5112669;28;20031;-72
2021/01/13 01:14:36;;;;;;;28.02;11.98;;;2.60;57.30;;;;;;5114014;28;20031;-70
2021/01/13 01:17:08;;;;;;;22.65;11.45;;;2.50;57.20;;;;;;5113967;28;20422;-71
2021/01/13 01:19:33;;;;;;;25.67;13.48;;;2.50;57.10;;;;;;5114232;28;20428;-71
2021/01/13 01:21:59;;;;;;;27.05;13.63;;;2.40;57.20;;;;;;5114172;28;20047;-71
2021/01/13 01:24:25;;;;;;;31.50;14.48;;;2.40;57.40;;;;;;5113796;28;20028;-71
2021/01/13 01:26:50;;;;;;;26.73;13.65;;;2.40;57.70;;;;;;5114181;28;20470;-71
2021/01/13 01:29:16;;;;;;;28.25;13.82;;;2.40;57.80;;;;;;5113553;28;20016;-72
2021/01/13 01:31:42;;;;;;;25.13;14.10;;;2.50;57.80;;;;;;5114920;28;20103;-71
2021/01/13 01:34:07;;;;;;;24.98;12.65;;;2.50;57.70;;;;;;5117713;28;20486;-72
2021/01/13 01:36:33;;;;;;;23.17;12.23;;;2.50;57.60;;;;;;5117176;28;20027;-72
2021/01/13 01:38:59;;;;;;;24.52;12.90;;;2.50;57.50;;;;;;5118131;28;20048;-71
2021/01/13 01:41:25;;;;;;;29.75;13.15;;;2.50;57.50;;;;;;5117405;28;20028;-70
2021/01/13 01:43:50;;;;;;;25.38;12.73;;;2.40;57.50;;;;;;5117671;28;20028;-72
2021/01/13 01:46:17;;;;;;;29.08;14.25;;;2.40;57.50;;;;;;5117515;28;20147;-72
2021/01/13 01:48:56;;;;;;;30.10;14.05;;;2.40;57.60;;;;;;5117385;28;20536;-71
2021/01/13 01:51:23;;;;;;;27.73;13.88;;;2.30;57.70;;;;;;5118184;28;20028;-70
2021/01/13 01:54:15;;;;;;;25.98;14.68;;;2.30;57.70;;;;;;5117592;28;20034;-71
2021/01/13 01:56:42;;;;;;;28.23;12.85;;;2.30;57.80;;;;;;5117258;28;20020;-71
2021/01/13 01:59:11;;;;;;;24.67;12.35;;;2.30;57.80;;;;;;5117524;28;20020;-72
2021/01/13 02:01:44;;;;;;;26.60;12.65;;;2.30;57.70;;;;;;5117692;28;20020;-72
2021/01/13 02:04:16;;;;;;;26.00;12.30;;;2.20;57.80;;;;;;5117571;28;20375;-70
2021/01/13 02:07:08;;;;;;;31.85;13.13;;;2.20;58.00;;;;;;5117325;28;20019;-70
2021/01/13 02:09:35;;;;;;;28.77;14.45;;;2.20;58.10;;;;;;5117263;28;20023;-71
2021/01/13 02:12:10;;;;;;;28.80;13.63;;;2.10;58.10;;;;;;5117522;28;20080;-71
2021/01/13 02:14:36;;;;;;;26.35;13.18;;;2.10;58.30;;;;;;5116945;28;20444;-72
2021/01/13 02:17:06;;;;;;;28.80;14.15;;;2.10;58.90;;;;;;5116871;28;20038;-71
2021/01/13 02:19:47;;;;;;;23.98;12.05;;;2.10;58.50;;;;;;5116578;28;20059;-71
2021/01/13 02:22:18;;;;;;;25.90;13.90;;;2.10;58.60;;;;;;5117377;28;20092;-71
2021/01/13 02:25:13;;;;;;;28.13;14.48;;;2.20;58.60;;;;;;5117248;28;20028;-71
2021/01/13 02:27:45;;;;;;;;;;;2.20;58.60;;;;;;5117500;28;20053;-72
2021/01/13 02:30:13;;;;;;;26.92;13.82;;;2.20;58.30;;;;;;5116890;28;19994;-71
2021/01/13 02:32:43;;;;;;;31.60;14.02;;;2.20;58.20;;;;;;5116863;28;20032;-71
2021/01/13 02:35:21;;;;;;;27.33;12.65;;;2.20;58.30;;;;;;5115512;28;20028;-71
2021/01/13 02:37:58;;;;;;;27.50;13.68;;;2.10;58.30;;;;;;5116754;28;20106;-70
2021/01/13 02:40:28;;;;;;;26.80;13.88;;;2.20;58.30;;;;;;5115526;28;20130;-72
2021/01/13 02:43:08;;;;;;;28.33;14.40;;;2.20;58.30;;;;;;5116326;28;20061;-72
2021/01/13 02:45:45;;;;;;;31.15;13.95;;;2.20;58.40;;;;;;5116916;28;20029;-70
2021/01/13 02:48:32;;;;;;;30.85;14.60;;;2.10;58.40;;;;;;5115240;28;20131;-71
2021/01/13 02:51:00;;;;;;;34.20;14.27;;;2.20;58.60;;;;;;5116660;28;20027;-70
2021/01/13 02:53:31;;;;;;;28.65;14.55;;;2.10;58.30;;;;;;5116693;28;20509;-72
2021/01/13 02:55:57;;;;;;;28.73;13.57;;;2.10;58.40;;;;;;5116252;28;20028;-71
2021/01/13 02:58:32;;;;;;;31.27;15.43;;;2.10;58.50;;;;;;5116535;28;20019;-72
2021/01/13 03:00:59;;;;;;;27.25;12.95;;;2.10;58.50;;;;;;5116171;28;20035;-70
2021/01/13 03:03:25;;;;;;;28.58;13.25;;;2.10;58.50;;;;;;5116154;28;20035;-71
2021/01/13 03:05:51;;;;;;;30.17;14.20;;;2.10;58.60;;;;;;5116418;28;20364;-72
2021/01/13 03:08:21;;;;;;;32.72;13.90;;;2.10;58.60;;;;;;5115779;28;20059;-72
2021/01/13 03:10:48;;;;;;;27.08;12.90;;;2.10;58.60;;;;;;5114720;28;20547;-71
2021/01/13 03:13:14;;;;;;;27.63;13.93;;;2.10;58.60;;;;;;5114774;28;20073;-70
2021/01/13 03:15:40;;;;;;;27.70;13.90;;;2.00;58.60;;;;;;5115952;28;20085;-71
2021/01/13 03:18:32;;;;;;;29.05;14.32;;;1.90;58.80;;;;;;5115920;28;20034;-70
2021/01/13 03:21:12;;;;;;;29.30;14.98;;;1.90;59.00;;;;;;5114544;28;20060;-71
2021/01/13 03:23:45;;;;;;;31.05;13.63;;;1.90;59.30;;;;;;5115713;28;20024;-71
2021/01/13 03:26:15;;;;;;;29.65;13.93;;;1.90;59.30;;;;;;5115407;28;20024;-72
2021/01/13 03:28:41;;;;;;;25.40;13.10;;;1.90;59.50;;;;;;5114955;28;20447;-71
2021/01/13 03:31:10;;;;;;;27.50;13.07;;;1.80;59.50;;;;;;5115644;28;20027;-70
2021/01/13 03:34:12;;;;;;;27.52;14.50;;;1.90;59.70;;;;;;5115608;28;20023;-71
2021/01/13 03:36:53;;;;;;;25.50;12.80;;;1.90;59.70;;;;;;5115221;28;20545;-72
2021/01/13 03:39:22;;;;;;;24.85;12.73;;;1.90;59.60;;;;;;5113908;28;20051;-71
2021/01/13 03:41:47;;;;;;;30.48;14.10;;;1.90;59.50;;;;;;5115939;28;20028;-73
2021/01/13 03:44:14;;;;;;;32.13;14.05;;;2.00;59.60;;;;;;5115239;28;20469;-71
2021/01/13 03:46:40;;;;;;;25.33;13.30;;;2.00;59.50;;;;;;5115571;28;20102;-71
2021/01/13 03:49:08;;;;;;;27.83;13.85;;;2.00;60.00;;;;;;5116086;28;20054;-72
2021/01/13 03:52:07;;;;;;;29.85;13.73;;;1.90;59.30;;;;;;5113961;28;20520;-71
2021/01/13 03:54:36;;;;;;;27.55;13.07;;;1.90;59.50;;;;;;5114913;28;20024;-71
2021/01/13 03:57:05;;;;;;;32.97;15.43;;;1.90;59.50;;;;;;5115228;28;20028;-70
2021/01/13 03:59:55;;;;;;;30.80;14.25;;;1.90;59.50;;;;;;5115154;28;20024;-71
2021/01/13 04:02:28;;;;;;;29.48;14.45;;;1.90;59.40;;;;;;5115109;28;20467;-70
2021/01/13 04:05:18;;;;;;;32.78;14.23;;;2.00;59.40;;;;;;5114735;28;20027;-70
2021/01/13 04:07:45;;;;;;;35.58;14.23;;;2.00;59.40;;;;;;5114245;28;20372;-70
2021/01/13 04:10:14;;;;;;;35.00;14.38;;;2.00;59.30;;;;;;5114887;28;20084;-70
2021/01/13 04:13:06;;;;;;;32.35;14.50;;;2.00;59.40;;;;;;5114899;28;20117;-72
2021/01/13 04:15:39;;;;;;;31.58;14.77;;;2.00;59.40;;;;;;5115172;28;20024;-71
2021/01/13 04:18:08;;;;;;;26.92;13.93;;;2.00;59.30;;;;;;5114877;28;20050;-73
2021/01/13 04:20:35;;;;;;;29.73;13.85;;;2.00;59.40;;;;;;5114384;28;20031;-72
2021/01/13 04:23:02;;;;;;;29.15;13.02;;;2.10;59.40;;;;;;5114607;28;20056;-72
2021/01/13 04:25:28;;;;;;;28.63;13.70;;;2.10;59.60;;;;;;5113295;28;20035;-72
2021/01/13 04:27:54;;;;;;;29.25;13.95;;;2.10;59.60;;;;;;5114375;28;20035;-72
2021/01/13 04:30:21;;;;;;;31.98;13.60;;;2.20;59.60;;;;;;5114327;28;20031;-71
2021/01/13 04:32:47;;;;;;;28.45;14.40;;;2.20;59.50;;;;;;5114206;28;20031;-72
2021/01/13 04:35:13;;;;;;;25.67;13.50;;;2.20;59.50;;;;;;5114577;28;20028;-71
2021/01/13 04:37:40;;;;;;;30.58;13.95;;;2.30;59.50;;;;;;5114184;28;20028;-71
2021/01/13 04:40:29;;;;;;;27.00;14.07;;;2.30;59.50;;;;;;5113545;28;20104;-72
2021/01/13 04:43:08;;;;;;;28.38;13.70;;;2.30;59.70;;;;;;5109267;28;20048;-72
2021/01/13 04:45:48;;;;;;;27.63;13.80;;;2.30;59.60;;;;;;5114635;28;20024;-71
2021/01/13 04:48:15;;;;;;;31.67;15.20;;;2.40;59.60;;;;;;5114028;28;20032;-72
2021/01/13 04:50:49;;;;;;;28.25;14.88;;;2.40;59.40;;;;;;5114005;28;20380;-71
2021/01/13 04:53:18;;;;;;;26.48;14.30;;;2.40;59.60;;;;;;5114259;28;20092;-71
2021/01/13 04:55:48;;;;;;;27.63;15.50;;;2.40;59.70;;;;;;5114772;28;20049;-72
2021/01/13 04:58:20;;;;;;;31.88;15.57;;;2.40;59.80;;;;;;5113891;28;20467;-72
2021/01/13 05:01:23;;;;;;;30.80;15.32;;;2.40;60.00;;;;;;5114412;28;20059;-71
2021/01/13 05:04:15;;;;;;;37.60;17.15;;;2.40;60.00;;;;;;5113741;28;20038;-72
2021/01/13 05:06:54;;;;;;;34.30;16.13;;;2.40;60.80;;;;;;5114370;28;20034;-71
2021/01/13 05:09:20;;;;;;;29.23;14.30;;;2.40;60.40;;;;;;5114015;28;20041;-73
2021/01/13 05:11:48;;;;;;;34.00;16.33;;;2.40;60.50;;;;;;5113990;28;20032;-73
2021/01/13 05:14:14;;;;;;;35.85;16.45;;;2.40;60.50;;;;;;5113925;28;20024;-72
2021/01/13 05:16:49;;;;;;;30.60;16.83;;;2.30;60.80;;;;;;5113564;28;20027;-71
2021/01/13 05:19:58;;;;;;;34.47;16.45;;;2.30;61.40;;;;;;5113850;28;20483;-73
2021/01/13 05:22:25;;;;;;;32.85;15.73;;;2.30;61.70;;;;;;5113632;28;20459;-73
2021/01/13 05:24:53;;;;;;;32.75;15.63;;;2.30;61.60;;;;;;5113854;28;20483;-72
2021/01/13 05:28:01;;;;;;;32.47;15.52;;;2.30;61.80;;;;;;5113845;28;20038;-72
2021/01/13 05:30:32;;;;;;;30.52;15.60;;;2.30;62.20;;;;;;5112449;28;20023;-73
2021/01/13 05:32:59;;;;;;;35.13;16.40;;;2.40;62.10;;;;;;5113666;28;20031;-72
2021/01/13 05:35:29;;;;;;;34.28;17.33;;;2.40;62.20;;;;;;5113711;28;20384;-70
2021/01/13 05:38:07;;;;;;;33.47;15.75;;;2.40;62.40;;;;;;5114236;28;20118;-70
2021/01/13 05:40:59;;;;;;;35.88;17.38;;;2.40;62.90;;;;;;5114570;28;20532;-69
2021/01/13 05:43:25;;;;;;;37.53;17.35;;;2.30;62.60;;;;;;5109210;28;20051;-70
2021/01/13 05:45:51;;;;;;;37.95;18.00;;;2.30;62.50;;;;;;5114157;28;20024;-72
2021/01/13 05:48:23;;;;;;;38.50;16.73;;;2.30;62.80;;;;;;5113249;28;20055;-72
2021/01/13 05:50:52;;;;;;;38.33;18.00;;;2.20;62.80;;;;;;5113225;28;20483;-72
2021/01/13 05:53:18;;;;;;;36.55;17.20;;;2.30;63.10;;;;;;5113591;28;20047;-70
2021/01/13 05:55:51;;;;;;;31.85;16.05;;;2.30;63.30;;;;;;5113713;28;20110;-72
2021/01/13 05:58:27;;;;;;;30.00;15.68;;;2.30;63.50;;;;;;5113472;28;20058;-73
2021/01/13 06:00:55;;;;;;;35.30;17.45;;;2.30;63.40;;;;;;5113391;28;20031;-71
2021/01/13 06:03:24;;;;;;;30.85;15.75;;;2.40;63.30;;;;;;5113381;28;20548;-71
2021/01/13 06:05:52;;;;;;;32.40;16.35;;;2.40;63.40;;;;;;5113743;28;20024;-72
2021/01/13 06:08:21;;;;;;;33.10;15.55;;;2.40;63.30;;;;;;5112099;28;20024;-73
2021/01/13 06:10:50;;;;;;;34.20;16.48;;;2.50;63.40;;;;;;5113218;28;20031;-72
2021/01/13 06:13:18;;;;;;;36.00;16.40;;;2.50;63.30;;;;;;5113695;28;20035;-72
2021/01/13 06:15:46;;;;;;;34.90;14.85;;;2.50;63.10;;;;;;5113028;28;20443;-74
2021/01/13 06:18:21;;;;;;;33.75;15.55;;;2.50;63.20;;;;;;5115391;28;20414;-72
2021/01/13 06:20:47;;;;;;;31.65;15.57;;;2.50;63.40;;;;;;5116873;28;20153;-73
2021/01/13 06:23:15;;;;;;;34.33;16.30;;;2.50;63.40;;;;;;5115649;28;20118;-72
2021/01/13 06:25:42;;;;;;;31.98;15.10;;;2.50;63.60;;;;;;5115506;28;20381;-71
2021/01/13 06:28:46;;;;;;;31.83;15.65;;;2.50;63.50;;;;;;5116973;28;20034;-72
2021/01/13 06:31:17;;;;;;;31.38;13.10;;;2.60;64.10;;;;;;5117273;28;20055;-73
2021/01/13 06:33:46;;;;;;;24.75;13.38;;;2.60;63.30;;;;;;5116856;28;20111;-72
2021/01/13 06:36:30;;;;;;;26.88;12.85;;;2.60;63.40;;;;;;5116528;28;20020;-72
2021/01/13 06:39:00;;;;;;;25.75;12.07;;;2.60;63.30;;;;;;5115004;28;20055;-72
2021/01/13 06:41:27;;;;;;;24.13;11.52;;;2.60;63.20;;;;;;5116649;28;20106;-72
2021/01/13 06:44:05;;;;;;;23.92;11.88;;;2.60;63.10;;;;;;5116185;28;20062;-72
2021/01/13 06:46:33;;;;;;;26.77;11.88;;;2.60;63.30;;;;;;5116815;28;20065;-72
2021/01/13 06:49:17;;;;;;;23.85;11.50;;;2.60;63.40;;;;;;5115849;28;20049;-72
2021/01/13 06:51:45;;;;;;;20.55;11.85;;;2.60;63.60;;;;;;5115894;28;20034;-72
2021/01/13 06:54:15;;;;;;;23.90;12.02;;;2.70;63.50;;;;;;5116390;28;20023;-73
2021/01/13 06:56:51;;;;;;;24.98;11.85;;;2.80;63.50;;;;;;5116272;28;20428;-73
2021/01/13 06:59:18;;;;;;;25.33;12.00;;;2.80;63.40;;;;;;5116310;28;20053;-72
2021/01/13 07:02:02;;;;;;;24.33;12.43;;;2.80;63.40;;;;;;5116501;28;20039;-71
2021/01/13 07:04:28;;;;;;;25.75;11.05;;;2.80;63.50;;;;;;5116410;28;20066;-73
2021/01/13 07:07:07;;;;;;;23.17;10.52;;;2.80;63.40;;;;;;5116278;28;20063;-73
2021/01/13 07:09:38;;;;;;;22.42;9.77;;;2.80;63.20;;;;;;5116024;28;20027;-74
2021/01/13 07:12:11;;;;;;;23.63;10.73;;;2.90;63.20;;;;;;5115819;28;20055;-73
2021/01/13 07:14:45;;;;;;;18.88;8.95;;;2.80;63.20;;;;;;5114782;28;20092;-71
2021/01/13 07:17:14;;;;;;;16.63;8.63;;;2.90;63.20;;;;;;5116324;28;20106;-73
2021/01/13 07:19:45;;;;;;;15.57;9.13;;;2.80;63.20;;;;;;5116087;28;20276;-74
2021/01/13 07:22:12;;;;;;;17.88;9.07;;;2.90;63.20;;;;;;5116276;28;20023;-71
2021/01/13 07:24:37;;;;;;;16.08;8.05;;;2.80;63.30;;;;;;5115615;28;20528;-72
2021/01/13 07:27:05;;;;;;;14.80;8.27;;;2.90;63.10;;;;;;5115734;28;20028;-71
2021/01/13 07:29:30;;;;;;;15.45;8.23;;;2.90;63.30;;;;;;5114560;28;20353;-71
2021/01/13 07:31:58;;;;;;;18.35;9.50;;;2.90;63.20;;;;;;5115431;28;20077;-71
2021/01/13 07:34:41;;;;;;;22.00;10.57;;;2.90;63.10;;;;;;5116176;28;20031;-71
2021/01/13 07:37:11;;;;;;;15.68;9.02;;;2.90;63.30;;;;;;5115345;28;20027;-71
2021/01/13 07:39:58;;;;;;;21.67;9.80;;;3.00;63.20;;;;;;5115576;28;20043;-73
2021/01/13 07:42:32;;;;;;;17.08;9.88;;;3.10;63.50;;;;;;5115561;28;20063;-71
2021/01/13 07:45:04;;;;;;;20.58;11.10;;;3.20;63.30;;;;;;5115383;28;20479;-73
2021/01/13 07:47:48;;;;;;;16.40;9.30;;;3.20;63.70;;;;;;5115615;28;20023;-72
2021/01/13 07:50:15;;;;;;;17.00;8.80;;;3.20;62.70;;;;;;5115654;28;20023;-72
2021/01/13 07:52:52;;;;;;;16.10;8.85;;;3.20;62.50;;;;;;5114507;28;20031;-72
2021/01/13 07:55:20;;;;;;;15.05;8.60;;;3.10;62.40;;;;;;5115471;28;20092;-71
2021/01/13 07:57:53;;;;;;;16.60;8.57;;;3.10;62.60;;;;;;5115171;28;20024;-72
2021/01/13 08:00:36;;;;;;;14.30;8.68;;;3.10;62.70;;;;;;5113703;28;20079;-72
2021/01/13 08:03:39;;;;;;;14.43;8.40;;;3.20;62.80;;;;;;5115053;28;20477;-72
2021/01/13 08:06:29;;;;;;;14.85;8.57;;;3.30;62.60;;;;;;5115364;28;20030;-72
2021/01/13 08:09:07;;;;;;;18.50;9.93;;;3.40;62.40;;;;;;5113626;28;20447;-72
2021/01/13 08:11:45;;;;;;;15.80;8.25;;;3.40;62.20;;;;;;5114955;28;20074;-72
2021/01/13 08:14:35;;;;;;;15.63;8.38;;;3.50;62.20;;;;;;5113624;28;20085;-71
2021/01/13 08:17:29;;;;;;;21.58;10.35;;;3.60;62.00;;;;;;5115063;28;20557;-73
2021/01/13 08:19:59;;;;;;;16.27;8.75;;;3.70;62.30;;;;;;5114773;28;20038;-72
2021/01/13 08:22:25;;;;;;;14.75;9.07;;;3.80;62.10;;;;;;5114684;28;20024;-73
2021/01/13 08:24:59;;;;;;;14.52;7.38;;;3.90;61.90;;;;;;5114645;28;20031;-73
2021/01/13 08:27:26;;;;;;;14.02;8.23;;;3.90;61.50;;;;;;5114662;28;20023;-72
2021/01/13 08:30:02;;;;;;;16.80;7.35;;;4.00;61.40;;;;;;5114510;28;20020;-72
2021/01/13 08:32:54;;;;;;;16.15;8.50;;;4.00;60.90;;;;;;5114692;28;20027;-73
2021/01/13 08:35:31;;;;;;;15.15;8.32;;;3.90;61.00;;;;;;5114779;28;20015;-71
2021/01/13 08:38:10;;;;;;;13.50;7.38;;;3.90;61.10;;;;;;5113723;28;20082;-72
2021/01/13 08:40:38;;;;;;;12.70;7.85;;;3.90;61.00;;;;;;5114607;28;20059;-72
2021/01/13 08:43:15;;;;;;;12.50;7.40;;;3.90;60.90;;;;;;5114297;28;20047;-71
2021/01/13 08:45:45;;;;;;;12.35;7.50;;;3.90;60.80;;;;;;5114398;28;20102;-70
2021/01/13 08:48:12;;;;;;;15.38;7.60;;;3.90;60.90;;;;;;5113764;28;20456;-71
2021/01/13 08:50:39;;;;;;;13.65;7.80;;;3.90;60.90;;;;;;5114330;28;20539;-72
2021/01/13 08:53:05;;;;;;;12.65;7.38;;;3.90;61.00;;;;;;5114253;28;20105;-72
2021/01/13 08:55:33;;;;;;;12.20;7.05;;;3.90;60.90;;;;;;5114150;28;20031;-72
2021/01/13 08:58:06;;;;;;;10.90;6.93;;;3.90;60.90;;;;;;5114401;28;20016;-72
2021/01/13 09:00:33;;;;;;;11.43;7.32;;;3.90;61.00;;;;;;5114438;28;20027;-73
2021/01/13 09:03:14;;;;;;;11.55;6.55;;;4.00;61.00;;;;;;5113278;28;20039;-74
2021/01/13 09:05:41;;;;;;;10.95;6.65;;;4.00;61.00;;;;;;5114066;28;20022;-73
2021/01/13 09:08:11;;;;;;;11.38;6.82;;;4.00;60.90;;;;;;5114574;28;20027;-73
2021/01/13 09:10:50;;;;;;;9.93;6.10;;;4.10;61.00;;;;;;5113927;28;20080;-74
2021/01/13 09:13:27;;;;;;;16.85;7.28;;;4.10;61.10;;;;;;5113549;28;20093;-75
2021/01/13 09:15:56;;;;;;;11.43;6.40;;;4.20;60.90;;;;;;5114486;28;20121;-73
2021/01/13 09:18:24;;;;;;;11.50;6.47;;;4.30;60.90;;;;;;5113767;28;20066;-74
2021/01/13 09:20:53;;;;;;;11.40;6.55;;;4.40;60.90;;;;;;5114640;28;20399;-76
2021/01/13 09:23:24;;;;;;;13.57;7.40;;;4.40;60.40;;;;;;5113547;28;20081;-74
2021/01/13 09:25:56;;;;;;;13.07;7.53;;;4.40;59.90;;;;;;5113385;28;20019;-73
2021/01/13 09:28:22;;;;;;;12.27;6.82;;;4.40;60.10;;;;;;5115187;28;20023;-75
2021/01/13 09:30:48;;;;;;;12.55;6.72;;;4.50;60.20;;;;;;5113500;28;20466;-77
2021/01/13 09:33:19;;;;;;;12.15;6.18;;;4.60;60.40;;;;;;5112363;28;20119;-75
2021/01/13 09:35:59;;;;;;;9.02;5.93;;;4.70;60.00;;;;;;5112418;28;20028;-74
2021/01/13 09:38:36;;;;;;;12.70;7.78;;;4.80;59.70;;;;;;5113572;28;20019;-74
2021/01/13 09:41:07;;;;;;;11.52;7.18;;;4.90;59.60;;;;;;5113692;28;20477;-74
2021/01/13 09:43:32;;;;;;;10.63;6.53;;;4.80;59.20;;;;;;5113591;28;20035;-75
2021/01/13 09:46:07;;;;;;;10.27;6.55;;;4.80;59.20;;;;;;5113369;28;20020;-75
2021/01/13 09:48:36;;;;;;;9.90;5.65;;;4.80;59.30;;;;;;5112384;28;20035;-75
2021/01/13 09:51:10;;;;;;;11.25;6.25;;;4.90;59.50;;;;;;5114016;28;20038;-75
2021/01/13 09:53:48;;;;;;;9.02;5.45;;;5.00;59.40;;;;;;5117060;28;20034;-74
2021/01/13 09:56:14;;;;;;;10.13;5.95;;;5.10;59.30;;;;;;5116408;28;20036;-74
2021/01/13 09:58:45;;;;;;;10.75;6.32;;;5.20;59.10;;;;;;5117203;28;20024;-75
2021/01/13 10:01:25;;;;;;;9.02;6.05;;;5.30;58.80;;;;;;5116078;28;20059;-75
2021/01/13 10:03:56;;;;;;;9.95;6.13;;;5.30;58.30;;;;;;5117286;28;20028;-74
2021/01/13 10:06:30;;;;;;;12.55;6.20;;;5.30;58.10;;;;;;5116101;28;20024;-74
2021/01/13 10:08:59;;;;;;;12.40;6.70;;;5.20;58.10;;;;;;5117171;28;20028;-74
2021/01/13 10:11:26;;;;;;;8.13;5.20;;;5.20;58.30;;;;;;5117205;28;20087;-75
2021/01/13 10:14:01;;;;;;;9.43;6.00;;;5.20;58.30;;;;;;5116007;28;20031;-74
2021/01/13 10:16:28;;;;;;;11.60;6.35;;;5.20;58.10;;;;;;5116891;28;20066;-74
2021/01/13 10:19:03;;;;;;;10.90;6.43;;;5.20;58.20;;;;;;5117176;28;20027;-73
2021/01/13 10:21:44;;;;;;;10.10;6.43;;;5.20;58.00;;;;;;5116739;28;20023;-72
2021/01/13 10:24:15;;;;;;;9.82;5.68;;;5.20;58.00;;;;;;5116964;28;20035;-72
2021/01/13 10:26:46;;;;;;;12.60;5.97;;;5.10;57.60;;;;;;5116160;28;20483;-74
2021/01/13 10:29:14;;;;;;;10.70;6.18;;;5.00;57.50;;;;;;5116888;28;20032;-74
2021/01/13 10:31:41;;;;;;;14.13;6.68;;;4.90;57.70;;;;;;5116915;28;20416;-74
2021/01/13 10:34:11;;;;;;;13.13;7.65;;;4.90;57.70;;;;;;5115230;28;20032;-73
2021/01/13 10:36:44;;;;;;;15.00;7.75;;;4.80;57.60;;;;;;5116467;28;20368;-72
2021/01/13 10:39:18;;;;;;;12.00;6.78;;;4.80;57.50;;;;;;5115155;28;20044;-72
2021/01/13 10:41:58;;;;;;;13.43;7.25;;;4.70;57.60;;;;;;5116933;28;20076;-73
2021/01/13 10:44:28;;;;;;;7.95;5.07;;;4.70;57.60;;;;;;5116053;28;20039;-72
2021/01/13 10:47:01;;;;;;;8.70;5.82;;;4.60;57.50;;;;;;5117495;28;20024;-71
2021/01/13 10:49:28;;;;;;;11.05;5.97;;;4.60;57.40;;;;;;5115903;28;20023;-72
2021/01/13 10:52:00;;;;;;;10.05;6.00;;;4.50;57.50;;;;;;5116937;28;20032;-73
2021/01/13 10:54:34;;;;;;;11.70;6.47;;;4.50;57.80;;;;;;5115404;28;20036;-72
2021/01/13 10:57:03;;;;;;;9.82;5.60;;;4.50;57.60;;;;;;5116048;28;20523;-73
2021/01/13 10:59:29;;;;;;;9.05;5.45;;;4.40;57.50;;;;;;5115061;28;20032;-72
2021/01/13 11:02:07;;;;;;;10.90;5.95;;;4.40;57.70;;;;;;5114889;28;20046;-72
2021/01/13 11:04:38;;;;;;;9.20;6.05;;;4.40;57.60;;;;;;5115474;28;20036;-73
2021/01/13 11:07:08;;;;;;;11.40;5.82;;;4.40;57.60;;;;;;5116154;28;20030;-71
2021/01/13 11:09:36;;;;;;;14.05;6.10;;;4.30;57.20;;;;;;5116174;27;20028;-70
2021/01/13 11:12:03;;;;;;;9.82;6.10;;;4.20;57.20;;;;;;5116043;28;20058;-71
2021/01/13 11:14:32;;;;;;;9.50;5.43;;;4.20;57.40;;;;;;5116239;28;20035;-72
2021/01/13 11:17:00;;;;;;;9.10;5.53;;;4.10;57.40;;;;;;5115275;28;20024;-71
2021/01/13 11:19:27;;;;;;;10.30;5.57;;;4.10;57.40;;;;;;5116184;28;20370;-71
2021/01/13 11:21:58;;;;;;;8.15;5.35;;;4.00;57.30;;;;;;5115027;28;20027;-72
2021/01/13 11:24:33;;;;;;;8.07;5.32;;;4.00;57.10;;;;;;5114723;28;20043;-72
2021/01/13 11:27:01;;;;;;;11.43;5.85;;;3.90;57.30;;;;;;5113585;28;20114;-72
2021/01/13 11:29:31;;;;;;;10.43;5.05;;;3.90;57.50;;;;;;5114156;28;20024;-73
2021/01/13 11:31:58;;;;;;;7.85;5.25;;;3.90;57.70;;;;;;5115956;28;20421;-72
2021/01/13 11:34:25;;;;;;;9.50;5.35;;;3.90;57.70;;;;;;5115501;28;20027;-72
2021/01/13 11:37:08;;;;;;;8.90;6.00;;;3.90;57.50;;;;;;5114663;28;20031;-74
2021/01/13 11:39:44;;;;;;;8.60;5.30;;;3.80;57.40;;;;;;5114942;28;20182;-74
2021/01/13 11:42:37;;;;;;;9.25;5.43;;;3.80;57.50;;;;;;5115835;28;20110;-71
2021/01/13 11:45:27;;;;;;;10.52;6.55;;;3.70;57.30;;;;;;5113528;28;20032;-73
2021/01/13 11:47:59;;;;;;;10.45;6.13;;;3.70;57.50;;;;;;5114617;28;20047;-74
2021/01/13 11:50:26;;;;;;;9.18;5.32;;;3.60;57.70;;;;;;5115322;28;20027;-77
2021/01/13 11:53:05;;;;;;;9.90;5.75;;;3.70;57.70;;;;;;5115289;28;20073;-74
2021/01/13 11:55:34;;;;;;;13.10;6.15;;;3.70;57.60;;;;;;5115982;28;20028;-73
2021/01/13 11:58:01;;;;;;;12.52;6.57;;;3.70;57.70;;;;;;5114254;28;20122;-70
2021/01/13 12:00:28;;;;;;;11.95;6.10;;;3.70;58.10;;;;;;5115559;28;20439;-71
2021/01/13 12:03:00;;;;;;;11.07;6.07;;;3.60;57.30;;;;;;5115097;28;20455;-71
2021/01/13 12:05:34;;;;;;;11.07;5.75;;;3.60;57.40;;;;;;5114241;28;20443;-70
2021/01/13 12:08:12;;;;;;;11.48;6.47;;;3.50;57.40;;;;;;5115034;28;20019;-71
2021/01/13 12:10:41;;;;;;;12.50;6.38;;;3.50;57.40;;;;;;5115563;28;20039;-72
2021/01/13 12:13:15;;;;;;;11.38;6.38;;;3.50;57.70;;;;;;5113771;28;20035;-73
2021/01/13 12:16:01;;;;;;;10.57;5.90;;;3.50;57.80;;;;;;5114684;28;20363;-74
2021/01/13 12:18:30;;;;;;;11.48;6.35;;;3.50;57.90;;;;;;5113324;28;20035;-74
2021/01/13 12:21:01;;;;;;;10.82;5.75;;;3.50;57.90;;;;;;5114902;28;20030;-75
2021/01/13 12:23:32;;;;;;;10.90;6.47;;;3.50;58.00;;;;;;5114736;28;20473;-72
2021/01/13 12:26:33;;;;;;;9.45;5.60;;;3.50;57.80;;;;;;5114919;28;20055;-72
2021/01/13 12:29:02;;;;;;;11.38;5.78;;;3.60;57.70;;;;;;5113915;28;20028;-72
2021/01/13 12:31:39;;;;;;;11.50;5.95;;;3.50;57.60;;;;;;5114529;28;20027;-72
2021/01/13 12:34:13;;;;;;;11.13;5.75;;;3.50;57.80;;;;;;5114415;28;20429;-71
2021/01/13 12:36:46;;;;;;;10.87;6.30;;;3.50;57.70;;;;;;5114242;28;20024;-72
2021/01/13 12:39:32;;;;;;;11.60;6.15;;;3.50;57.70;;;;;;5114532;28;20054;-71
2021/01/13 12:41:59;;;;;;;12.00;6.03;;;3.50;57.60;;;;;;5112997;28;20038;-73
2021/01/13 12:44:25;;;;;;;10.75;5.70;;;3.50;57.70;;;;;;5114060;28;20050;-71
2021/01/13 12:46:58;;;;;;;10.80;5.78;;;3.40;57.70;;;;;;5114362;28;20024;-72
2021/01/13 12:49:25;;;;;;;10.20;6.15;;;3.40;57.70;;;;;;5113609;28;20027;-71
2021/01/13 12:51:55;;;;;;;12.65;7.18;;;3.40;57.70;;;;;;5114592;28;20055;-73
2021/01/13 12:54:22;;;;;;;10.70;6.38;;;3.30;57.80;;;;;;5114340;28;20102;-73
2021/01/13 12:56:48;;;;;;;12.05;6.63;;;3.30;57.90;;;;;;5114239;28;20036;-72
2021/01/13 12:59:15;;;;;;;13.05;6.78;;;3.30;57.90;;;;;;5113893;28;20027;-72
2021/01/13 13:01:42;;;;;;;11.70;7.38;;;3.30;57.90;;;;;;5114022;28;20030;-73
2021/01/13 13:04:08;;;;;;;11.45;6.55;;;3.30;58.00;;;;;;5113840;28;20032;-72
2021/01/13 13:06:36;;;;;;;15.60;6.90;;;3.30;58.00;;;;;;5112470;28;20104;-74
2021/01/13 13:09:09;;;;;;;10.80;6.80;;;3.30;57.80;;;;;;5113906;28;20110;-72